Time;durP1;ratioP1;P1;durP2;ratioP2;P2;SDS_P1;SDS_P2;PMS_P1;PMS_P2;Temp;Humidity;BMP_temperature;BMP_pressure;BME280_temperature;BME280_humidity;BME280_pressure;Samples;Min_cycle;Max_cycle;Signal;HPM_P1;HPM_P2
2023/05/08 00:01:56;;;;;;;60.28;21.75;;;;;;;-144.87;100.00;61487.56;4972919;28;20125;-76
2023/05/08 00:04:22;;;;;;;70.38;26.10;;;;;;;-144.87;100.00;61487.56;4955167;28;20203;-77
2023/05/08 00:06:50;;;;;;;56.13;27.45;;;;;;;-144.87;100.00;61487.56;4937511;28;20122;-77
2023/05/08 00:09:16;;;;;;;60.00;27.50;;;;;;;-144.87;100.00;61487.56;4950285;28;20058;-76
2023/05/08 00:11:43;;;;;;;62.00;29.02;;;;;;;-144.87;100.00;61487.56;4966628;28;20031;-76
2023/05/08 00:14:09;;;;;;;72.38;32.90;;;;;;;-144.87;100.00;61487.56;4937868;28;20054;-76
2023/05/08 00:16:36;;;;;;;65.05;31.63;;;;;;;-144.87;100.00;61487.56;4949033;28;20039;-76
2023/05/08 00:19:02;;;;;;;75.95;33.80;;;;;;;-144.87;100.00;61487.56;4949107;28;20050;-76
2023/05/08 00:21:30;;;;;;;73.00;33.90;;;;;;;-144.87;100.00;61487.56;4951162;28;20035;-75
2023/05/08 00:23:56;;;;;;;75.60;33.45;;;;;;;-144.87;100.00;61487.56;4952411;28;20437;-76
2023/05/08 00:26:23;;;;;;;57.97;30.13;;;;;;;-144.87;100.00;61487.56;4929045;28;20040;-76
2023/05/08 00:28:49;;;;;;;74.30;31.35;;;;;;;-144.87;100.00;61487.56;4937037;28;20043;-77
2023/05/08 00:31:15;;;;;;;100.28;31.10;;;;;;;-144.87;100.00;61487.56;4947969;28;20055;-77
2023/05/08 00:33:42;;;;;;;206.43;33.67;;;;;;;-144.87;100.00;61487.56;4953095;28;20053;-76
2023/05/08 00:36:08;;;;;;;236.20;33.60;;;;;;;-144.87;100.00;61487.56;4973899;28;20054;-77
2023/05/08 00:38:35;;;;;;;83.60;28.77;;;;;;;-144.87;100.00;61487.56;4956768;28;20113;-77
2023/05/08 00:41:02;;;;;;;114.72;30.83;;;;;;;-144.87;100.00;61487.56;4955981;28;20042;-76
2023/05/08 00:43:29;;;;;;;118.65;32.10;;;;;;;-144.87;100.00;61487.56;4955728;28;20519;-77
2023/05/08 00:45:56;;;;;;;157.45;33.60;;;;;;;-144.87;100.00;61487.56;4934488;28;20042;-77
2023/05/08 00:53:22;;;;;;;94.22;30.08;;;;;;;-144.87;100.00;61487.56;4959820;23;20136;-76
2023/05/08 00:55:50;;;;;;;261.25;44.88;;;;;;;-144.87;100.00;61487.56;4951868;28;20051;-75
2023/05/08 00:58:16;;;;;;;218.05;42.30;;;;;;;-144.87;100.00;61487.56;4968970;28;20416;-77
2023/05/08 01:00:44;;;;;;;187.32;41.40;;;;;;;-144.87;100.00;61487.56;4938860;28;20046;-76
2023/05/08 01:03:11;;;;;;;210.90;42.72;;;;;;;-144.87;100.00;61487.56;4938604;28;20034;-76
2023/05/08 01:05:38;;;;;;;171.93;37.90;;;;;;;-144.87;100.00;61487.56;4933473;29;20403;-76
2023/05/08 01:08:05;;;;;;;191.63;41.08;;;;;;;-144.87;100.00;61487.56;4934200;28;20093;-76
2023/05/08 01:11:04;;;;;;;243.35;43.22;;;;;;;-144.87;100.00;61487.56;4952020;28;20118;-76
2023/05/08 01:13:37;;;;;;;97.85;37.33;;;;;;;-144.87;100.00;61487.56;4970738;28;20039;-76
2023/05/08 01:16:27;;;;;;;142.35;42.33;;;;;;;-144.87;100.00;61487.56;4969625;28;20077;-77
2023/05/08 01:19:04;;;;;;;119.90;41.03;;;;;;;-144.87;100.00;61487.56;4962538;28;20046;-77
2023/05/08 01:21:51;;;;;;;131.68;41.55;;;;;;;-144.87;100.00;61487.56;4955241;28;20138;-77
2023/05/08 01:24:52;;;;;;;103.22;40.28;;;;;;;-144.87;100.00;61487.56;4939809;28;20070;-75
2023/05/08 01:27:55;;;;;;;128.38;45.28;;;;;;;-144.87;100.00;61487.56;4940752;28;20035;-77
2023/05/08 01:30:43;;;;;;;145.50;46.55;;;;;;;-144.87;100.00;61487.56;4954376;28;20129;-76
2023/05/08 01:33:41;;;;;;;126.57;46.15;;;;;;;-144.87;100.00;61487.56;4954975;28;20031;-75
2023/05/08 01:36:20;;;;;;;133.90;47.17;;;;;;;-144.87;100.00;61487.56;4932213;28;20523;-76
2023/05/08 01:38:46;;;;;;;115.70;43.03;;;;;;;-144.87;100.00;61487.56;4948992;28;20045;-77
2023/05/08 01:41:16;;;;;;;119.05;41.50;;;;;;;-144.87;100.00;61487.56;4947727;28;20093;-76
2023/05/08 01:44:17;;;;;;;107.40;40.50;;;;;;;-144.87;100.00;61487.56;4954638;28;20121;-76
2023/05/08 01:46:49;;;;;;;117.78;42.63;;;;;;;-144.87;100.00;61487.56;4972239;28;20093;-76
2023/05/08 01:49:43;;;;;;;176.57;41.83;;;;;;;-144.87;100.00;61487.56;4963869;28;20421;-76
2023/05/08 01:52:20;;;;;;;292.67;51.75;;;;;;;-144.87;100.00;61487.56;4948137;28;20058;-76
2023/05/08 01:55:02;;;;;;;165.70;54.72;;;;;;;-144.87;100.00;61487.56;4968255;28;20051;-75
2023/05/08 01:57:32;;;;;;;200.70;54.45;;;;;;;-144.87;100.00;61487.56;4953430;28;20027;-75
2023/05/08 02:00:00;;;;;;;126.90;42.53;;;;;;;-144.87;100.00;61487.56;4937606;29;20031;-76
2023/05/08 02:02:27;;;;;;;181.35;44.33;;;;;;;-144.87;100.00;61487.56;4958010;28;20056;-76
2023/05/08 02:04:54;;;;;;;171.95;43.90;;;;;;;-144.87;100.00;61487.56;4942152;28;20035;-77
2023/05/08 02:07:22;;;;;;;118.00;44.10;;;;;;;-144.87;100.00;61487.56;4956285;28;20424;-78
2023/05/08 02:09:50;;;;;;;158.07;58.67;;;;;;;-144.87;100.00;61487.56;4954346;28;20035;-77
2023/05/08 02:12:17;;;;;;;138.60;52.38;;;;;;;-144.87;100.00;61487.56;4973374;28;20070;-76
2023/05/08 02:14:50;;;;;;;114.85;42.15;;;;;;;-144.87;100.00;61487.56;4950635;28;20042;-77
2023/05/08 02:17:17;;;;;;;118.45;48.85;;;;;;;-144.87;100.00;61487.56;4969095;28;20155;-77
2023/05/08 02:19:44;;;;;;;185.73;68.75;;;;;;;-144.87;100.00;61487.56;4952385;28;20125;-77
2023/05/08 02:22:11;;;;;;;155.90;31.63;;;;;;;-144.87;100.00;61487.56;4969787;28;20616;-78
2023/05/08 02:24:38;;;;;;;135.15;31.50;;;;;;;-144.87;100.00;61487.56;4952795;28;20097;-76
2023/05/08 02:27:05;;;;;;;211.60;36.85;;;;;;;-144.87;100.00;61487.56;4954682;28;20035;-77
2023/05/08 02:29:32;;;;;;;324.25;44.13;;;;;;;-144.87;100.00;61487.56;4948036;29;20039;-78
2023/05/08 02:32:01;;;;;;;334.30;45.50;;;;;;;-144.87;100.00;61487.56;4967545;28;20062;-77
2023/05/08 02:34:28;;;;;;;328.80;46.75;;;;;;;-144.87;100.00;61487.56;4967458;28;20037;-77
2023/05/08 02:36:54;;;;;;;172.07;40.45;;;;;;;-144.87;100.00;61487.56;4949739;28;20130;-76
2023/05/08 02:39:24;;;;;;;95.10;34.85;;;;;;;-144.87;100.00;61487.56;4935626;28;20037;-77
2023/05/08 02:41:51;;;;;;;170.10;38.13;;;;;;;-144.87;100.00;61487.56;4960838;28;20448;-75
2023/05/08 02:44:17;;;;;;;89.20;35.60;;;;;;;-144.87;100.00;61487.56;4952774;28;20596;-74
2023/05/08 02:46:59;;;;;;;81.50;33.70;;;;;;;-144.87;100.00;61487.56;4939043;28;20400;-76
2023/05/08 02:49:44;;;;;;;92.18;35.88;;;;;;;-144.87;100.00;61487.56;4958578;28;20488;-76
2023/05/08 02:52:22;;;;;;;76.95;32.33;;;;;;;-144.87;100.00;61487.56;4978627;28;20058;-77
2023/05/08 02:55:25;;;;;;;56.83;27.40;;;;;;;-144.87;100.00;61487.56;4942174;28;20407;-75
2023/05/08 02:58:10;;;;;;;69.75;27.02;;;;;;;-144.87;100.00;61487.56;4956679;28;20076;-76
2023/05/08 03:01:05;;;;;;;60.22;25.73;;;;;;;-144.87;100.00;61487.56;4967807;28;20038;-76
2023/05/08 03:03:58;;;;;;;47.90;23.17;;;;;;;-144.87;100.00;61487.56;4956264;28;20057;-77
2023/05/08 03:06:26;;;;;;;55.72;24.48;;;;;;;-144.87;100.00;61487.56;4923118;29;20257;-77
2023/05/08 03:08:53;;;;;;;97.78;29.13;;;;;;;-144.87;100.00;61487.56;4944721;28;20523;-76
2023/05/08 03:11:27;;;;;;;160.70;33.10;;;;;;;-144.87;100.00;61487.56;4938302;28;20031;-76
2023/05/08 03:13:57;;;;;;;118.65;31.77;;;;;;;-144.87;100.00;61487.56;4941034;28;20397;-76
2023/05/08 03:16:24;;;;;;;152.15;33.70;;;;;;;-144.87;100.00;61487.56;4956828;28;20311;-76
2023/05/08 03:18:57;;;;;;;236.40;40.00;;;;;;;-144.87;100.00;61487.56;4939104;28;20500;-76
2023/05/08 03:21:27;;;;;;;129.55;37.85;;;;;;;-144.87;100.00;61487.56;4935697;28;20031;-77
2023/05/08 03:23:55;;;;;;;187.88;44.30;;;;;;;-144.87;100.00;61487.56;4934798;28;20043;-76
2023/05/08 03:26:21;;;;;;;261.10;50.60;;;;;;;-144.87;100.00;61487.56;4964026;28;20109;-78
2023/05/08 03:28:51;;;;;;;210.45;54.28;;;;;;;-144.87;100.00;61487.56;4962599;28;20572;-77
2023/05/08 03:31:23;;;;;;;413.27;73.47;;;;;;;-144.87;100.00;61487.56;4950900;28;20046;-76
2023/05/08 03:33:53;;;;;;;410.10;71.07;;;;;;;-144.87;100.00;61487.56;4955247;28;20027;-76
2023/05/08 03:36:21;;;;;;;256.48;53.53;;;;;;;-144.87;100.00;61487.56;4956217;28;20051;-76
2023/05/08 03:38:48;;;;;;;225.35;48.00;;;;;;;-144.87;100.00;61487.56;4933099;28;20047;-76
2023/05/08 03:41:15;;;;;;;277.60;46.28;;;;;;;-144.87;100.00;61487.56;4956493;28;20038;-77
2023/05/08 03:43:41;;;;;;;211.00;43.20;;;;;;;-144.87;100.00;61487.56;4952930;28;20045;-75
2023/05/08 03:46:09;;;;;;;344.05;46.83;;;;;;;-144.87;100.00;61487.56;4911112;29;20044;-77
2023/05/08 03:48:36;;;;;;;277.40;44.15;;;;;;;-144.87;100.00;61487.56;4930728;29;20047;-78
2023/05/08 03:51:04;;;;;;;240.40;45.63;;;;;;;-144.87;100.00;61487.56;4915949;29;20437;-77
2023/05/08 03:53:32;;;;;;;169.18;43.65;;;;;;;-144.87;100.00;61487.56;4917388;29;20036;-77
2023/05/08 03:56:00;;;;;;;245.18;46.53;;;;;;;-144.87;100.00;61487.56;4917752;29;20058;-77
2023/05/08 03:58:31;;;;;;;234.27;48.65;;;;;;;-144.87;100.00;61487.56;4903278;29;20031;-76
2023/05/08 04:00:58;;;;;;;223.98;46.67;;;;;;;-144.87;100.00;61487.56;4921697;29;20127;-77
2023/05/08 04:03:59;;;;;;;129.48;41.65;;;;;;;-144.87;100.00;61487.56;4937893;29;20051;-79
2023/05/08 04:07:07;;;;;;;335.52;48.30;;;;;;;-144.87;100.00;61487.56;4924459;29;20123;-77
2023/05/08 04:10:17;;;;;;;391.05;50.42;;;;;;;-144.87;100.00;61487.56;4905779;29;20127;-78
2023/05/08 04:13:03;;;;;;;298.73;47.08;;;;;;;-144.87;100.00;61487.56;4934280;29;20192;-77
2023/05/08 04:15:32;;;;;;;452.35;54.65;;;;;;;-144.87;100.00;61487.56;4919382;29;20035;-76
2023/05/08 04:18:08;;;;;;;465.17;53.83;;;;;;;-144.87;100.00;61487.56;4964976;28;20133;-77
2023/05/08 04:20:39;;;;;;;622.10;63.83;;;;;;;-144.87;100.00;61487.56;4940021;28;20046;-77
2023/05/08 04:23:07;;;;;;;534.78;62.85;;;;;;;-144.87;100.00;61487.56;4970068;28;20030;-77
2023/05/08 04:25:35;;;;;;;556.33;65.78;;;;;;;-144.87;100.00;61487.56;4955225;28;20030;-78
2023/05/08 04:28:05;;;;;;;425.80;58.58;;;;;;;-144.87;100.00;61487.56;4929709;29;20035;-77
2023/05/08 04:30:32;;;;;;;503.45;64.20;;;;;;;-144.87;100.00;61487.56;4951369;28;20054;-77
2023/05/08 04:33:02;;;;;;;476.23;61.35;;;;;;;-144.87;100.00;61487.56;4957017;28;20045;-77
2023/05/08 04:35:29;;;;;;;365.02;55.33;;;;;;;-144.87;100.00;61487.56;4977706;28;20062;-78
2023/05/08 04:37:55;;;;;;;215.20;49.05;;;;;;;-144.87;100.00;61487.56;4930582;28;20031;-78
2023/05/08 04:40:22;;;;;;;381.33;55.33;;;;;;;-144.87;100.00;61487.56;4945895;28;20130;-78
2023/05/08 04:42:48;;;;;;;465.38;59.85;;;;;;;-144.87;100.00;61487.56;4963444;28;20523;-78
2023/05/08 04:45:17;;;;;;;212.38;49.45;;;;;;;-144.87;100.00;61487.56;4962406;28;20030;-77
2023/05/08 04:47:44;;;;;;;200.98;48.72;;;;;;;-144.87;100.00;61487.56;4937975;28;20038;-76
2023/05/08 04:50:10;;;;;;;245.63;49.75;;;;;;;-144.87;100.00;61487.56;4938098;28;20137;-77
2023/05/08 04:52:37;;;;;;;428.55;57.60;;;;;;;-144.87;100.00;61487.56;4936328;29;20039;-77
2023/05/08 04:55:04;;;;;;;383.25;55.80;;;;;;;-144.87;100.00;61487.56;4952360;28;20061;-78
2023/05/08 04:57:34;;;;;;;501.80;63.38;;;;;;;-144.87;100.00;61487.56;4947979;29;20133;-77
2023/05/08 05:00:01;;;;;;;223.35;50.92;;;;;;;-144.87;100.00;61487.56;4939655;28;20126;-77
2023/05/08 05:02:28;;;;;;;231.80;49.80;;;;;;;-144.87;100.00;61487.56;4955112;28;20046;-78
2023/05/08 05:04:57;;;;;;;491.55;66.45;;;;;;;-144.87;100.00;61487.56;4939045;28;20057;-77
2023/05/08 05:07:24;;;;;;;471.83;63.65;;;;;;;-144.87;100.00;61487.56;4953470;28;20504;-77
2023/05/08 05:09:50;;;;;;;310.40;59.15;;;;;;;-144.87;100.00;61487.56;4925926;28;20039;-76
2023/05/08 05:12:17;;;;;;;422.98;62.83;;;;;;;-144.87;100.00;61487.56;4979304;28;20463;-76
2023/05/08 05:14:43;;;;;;;518.22;65.35;;;;;;;-144.87;100.00;61487.56;4914794;28;20042;-77
2023/05/08 05:17:10;;;;;;;314.10;56.80;;;;;;;-144.87;100.00;61487.56;4945433;28;20482;-76
2023/05/08 05:19:36;;;;;;;375.50;60.50;;;;;;;-144.87;100.00;61487.56;4938787;28;20481;-77
2023/05/08 05:22:05;;;;;;;480.33;64.18;;;;;;;-144.87;100.00;61487.56;4955913;28;20139;-77
2023/05/08 05:24:34;;;;;;;568.03;69.00;;;;;;;-144.87;100.00;61487.56;4934020;28;20039;-77
2023/05/08 05:27:04;;;;;;;833.47;80.38;;;;;;;-144.87;100.00;61487.56;4935495;28;20039;-77
2023/05/08 05:29:31;;;;;;;634.60;68.50;;;;;;;-144.87;100.00;61487.56;4935603;28;20451;-78
2023/05/08 05:31:58;;;;;;;638.97;69.18;;;;;;;-144.87;100.00;61487.56;4932941;28;20035;-77
2023/05/08 05:34:24;;;;;;;707.65;71.15;;;;;;;-144.87;100.00;61487.56;4951545;28;20034;-76
2023/05/08 05:36:51;;;;;;;651.90;70.47;;;;;;;-144.87;100.00;61487.56;4942001;28;20031;-78
2023/05/08 05:39:17;;;;;;;718.28;74.38;;;;;;;-144.87;100.00;61487.56;4952535;28;20055;-77
2023/05/08 05:41:44;;;;;;;756.10;74.07;;;;;;;-144.87;100.00;61487.56;4917180;28;20034;-77
2023/05/08 05:44:11;;;;;;;624.17;74.30;;;;;;;-144.87;100.00;61487.56;4950363;28;20439;-77
2023/05/08 05:46:37;;;;;;;448.88;63.67;;;;;;;-144.87;100.00;61487.56;4942898;28;20185;-75
2023/05/08 05:49:04;;;;;;;475.25;66.63;;;;;;;-144.87;100.00;61487.56;4977606;28;20030;-78
2023/05/08 05:51:32;;;;;;;636.38;75.20;;;;;;;-144.87;100.00;61487.56;4924924;28;20117;-77
2023/05/08 05:53:59;;;;;;;481.58;68.05;;;;;;;-144.87;100.00;61487.56;4933599;28;20051;-75
2023/05/08 05:56:26;;;;;;;634.58;75.90;;;;;;;-144.87;100.00;61487.56;4946990;28;20419;-76
2023/05/08 05:58:53;;;;;;;634.97;76.57;;;;;;;-144.87;100.00;61487.56;4951680;28;20521;-75
2023/05/08 06:01:19;;;;;;;325.20;62.72;;;;;;;-144.87;100.00;61487.56;4950490;28;20408;-77
2023/05/08 06:03:47;;;;;;;691.53;79.85;;;;;;;-144.87;100.00;61487.56;4964930;28;20137;-76
2023/05/08 06:06:13;;;;;;;642.78;82.05;;;;;;;-144.87;100.00;61487.56;4919126;28;20050;-77
2023/05/08 06:08:39;;;;;;;900.60;90.47;;;;;;;-144.87;100.00;61487.56;4951113;28;20050;-77
2023/05/08 06:11:06;;;;;;;302.25;62.47;;;;;;;-144.87;100.00;61487.56;4948802;28;20034;-76
2023/05/08 06:13:33;;;;;;;470.90;68.35;;;;;;;-144.87;100.00;61487.56;4946404;28;20031;-76
2023/05/08 06:15:59;;;;;;;1188.13;114.80;;;;;;;-144.87;100.00;61487.56;4920065;28;20065;-76
2023/05/08 06:18:26;;;;;;;1999.90;325.35;;;;;;;-144.87;100.00;61487.56;4939856;28;20381;-76
2023/05/08 06:20:57;;;;;;;642.45;81.35;;;;;;;-144.87;100.00;61487.56;4945264;28;20450;-77
2023/05/08 06:23:23;;;;;;;1689.55;145.73;;;;;;;-144.87;100.00;61487.56;4958151;28;20335;-77
2023/05/08 06:25:50;;;;;;;1999.90;185.45;;;;;;;-144.87;100.00;61487.56;4971682;28;20125;-76
2023/05/08 06:28:16;;;;;;;337.25;63.22;;;;;;;-144.87;100.00;61487.56;4934666;29;20046;-76
2023/05/08 06:30:42;;;;;;;515.70;74.40;;;;;;;-144.87;100.00;61487.56;4945038;28;20039;-76
2023/05/08 06:33:10;;;;;;;250.52;63.97;;;;;;;-144.87;100.00;61487.56;4938141;28;20122;-76
2023/05/08 06:35:36;;;;;;;245.63;64.47;;;;;;;-144.87;100.00;61487.56;4970839;28;20447;-77
2023/05/08 06:38:03;;;;;;;249.25;63.78;;;;;;;-144.87;100.00;61487.56;4953331;28;20089;-76
2023/05/08 06:40:29;;;;;;;190.10;58.97;;;;;;;-144.87;100.00;61487.56;4936290;28;20404;-77
2023/05/08 06:42:56;;;;;;;178.70;59.00;;;;;;;-144.87;100.00;61487.56;4960233;28;20099;-76
2023/05/08 06:45:22;;;;;;;222.73;57.10;;;;;;;-144.87;100.00;61487.56;4953338;28;20239;-75
2023/05/08 06:47:49;;;;;;;195.48;59.65;;;;;;;-144.87;100.00;61487.56;4967372;28;20108;-76
2023/05/08 06:50:15;;;;;;;230.35;60.55;;;;;;;-144.87;100.00;61487.56;4954721;28;20031;-75
2023/05/08 06:52:42;;;;;;;176.43;57.95;;;;;;;-144.87;100.00;61487.56;4956206;28;20043;-76
2023/05/08 06:55:08;;;;;;;186.27;60.33;;;;;;;-144.87;100.00;61487.56;4954610;28;20066;-75
2023/05/08 06:57:34;;;;;;;193.02;59.33;;;;;;;-144.87;100.00;61487.56;4956087;28;20039;-78
2023/05/08 07:00:01;;;;;;;198.90;60.25;;;;;;;-144.87;100.00;61487.56;4955869;28;20034;-77
2023/05/08 07:02:27;;;;;;;194.73;62.35;;;;;;;-144.87;100.00;61487.56;4972926;28;20407;-75
2023/05/08 07:04:53;;;;;;;225.25;65.95;;;;;;;-144.87;100.00;61487.56;4964761;28;20508;-76
2023/05/08 07:07:20;;;;;;;260.58;66.53;;;;;;;-144.87;100.00;61487.56;4918870;29;20047;-75
2023/05/08 07:09:46;;;;;;;182.50;62.75;;;;;;;-144.87;100.00;61487.56;4956547;28;20130;-77
2023/05/08 07:12:15;;;;;;;203.93;65.93;;;;;;;-144.87;100.00;61487.56;4966612;28;20137;-75
2023/05/08 07:14:42;;;;;;;178.30;59.53;;;;;;;-144.87;100.00;61487.56;4937192;28;20043;-75
2023/05/08 07:17:09;;;;;;;165.95;59.85;;;;;;;-144.87;100.00;61487.56;4951708;29;20493;-76
2023/05/08 07:19:37;;;;;;;153.93;58.90;;;;;;;-144.87;100.00;61487.56;4948294;28;20039;-76
2023/05/08 07:22:04;;;;;;;184.48;61.53;;;;;;;-144.87;100.00;61487.56;4931771;28;20067;-76
2023/05/08 07:24:30;;;;;;;157.80;58.97;;;;;;;-144.87;100.00;61487.56;4950734;28;20049;-75
2023/05/08 07:26:58;;;;;;;168.80;64.38;;;;;;;-144.87;100.00;61487.56;4969119;28;20035;-76
2023/05/08 07:29:25;;;;;;;183.90;66.30;;;;;;;-144.87;100.00;61487.56;4970144;28;20066;-76
2023/05/08 07:31:52;;;;;;;161.27;64.00;;;;;;;-144.87;100.00;61487.56;4971219;28;20101;-76
2023/05/08 07:34:18;;;;;;;167.40;68.65;;;;;;;-144.87;100.00;61487.56;4953808;28;20039;-74
2023/05/08 07:36:45;;;;;;;163.18;66.15;;;;;;;-144.87;100.00;61487.56;4974416;28;20069;-76
2023/05/08 07:39:11;;;;;;;154.57;66.68;;;;;;;-144.87;100.00;61487.56;4974637;28;20515;-76
2023/05/08 07:41:39;;;;;;;144.27;64.85;;;;;;;-144.87;100.00;61487.56;4954712;28;20455;-76
2023/05/08 07:44:06;;;;;;;136.25;63.25;;;;;;;-144.87;100.00;61487.56;4972341;28;20042;-77
2023/05/08 07:46:33;;;;;;;131.85;65.00;;;;;;;-144.87;100.00;61487.56;4972275;28;20473;-75
2023/05/08 07:48:59;;;;;;;136.93;64.78;;;;;;;-144.87;100.00;61487.56;4954479;28;20039;-76
2023/05/08 07:51:26;;;;;;;133.35;63.17;;;;;;;-144.87;100.00;61487.56;4955682;28;20042;-77
2023/05/08 07:53:53;;;;;;;136.48;64.65;;;;;;;-144.87;100.00;61487.56;4955016;28;20050;-76
2023/05/08 07:56:21;;;;;;;141.13;64.53;;;;;;;-144.87;100.00;61487.56;4956161;28;20053;-77
2023/05/08 07:58:48;;;;;;;144.77;65.60;;;;;;;-144.87;100.00;61487.56;4955683;28;20045;-76
2023/05/08 08:01:16;;;;;;;119.35;62.92;;;;;;;-144.87;100.00;61487.56;4953995;28;20054;-74
2023/05/08 08:03:44;;;;;;;126.18;63.53;;;;;;;-144.87;100.00;61487.56;4956428;28;20057;-76
2023/05/08 08:06:10;;;;;;;122.15;61.90;;;;;;;-144.87;100.00;61487.56;4971475;28;20035;-74
2023/05/08 08:08:37;;;;;;;124.43;61.80;;;;;;;-144.87;100.00;61487.56;4956355;28;20062;-76
2023/05/08 08:11:03;;;;;;;111.38;60.28;;;;;;;-144.87;100.00;61487.56;4955465;28;20051;-75
2023/05/08 08:13:29;;;;;;;105.63;57.83;;;;;;;-144.87;100.00;61487.56;4957059;28;20079;-76
2023/05/08 08:15:56;;;;;;;107.70;59.80;;;;;;;-144.87;100.00;61487.56;4956652;28;20102;-76
2023/05/08 08:18:22;;;;;;;101.63;58.03;;;;;;;-144.87;100.00;61487.56;4940115;28;20070;-76
2023/05/08 08:20:48;;;;;;;110.97;59.67;;;;;;;-144.87;100.00;61487.56;4971625;28;20181;-76
2023/05/08 08:23:14;;;;;;;103.22;61.25;;;;;;;-144.87;100.00;61487.56;4955523;28;20058;-75
2023/05/08 08:25:41;;;;;;;101.90;59.53;;;;;;;-144.87;100.00;61487.56;4954358;28;20089;-75
2023/05/08 08:28:07;;;;;;;101.90;58.08;;;;;;;-144.87;100.00;61487.56;4939530;28;20121;-76
2023/05/08 08:30:34;;;;;;;95.90;56.30;;;;;;;-144.87;100.00;61487.56;4970597;28;20038;-75
2023/05/08 08:33:01;;;;;;;81.40;53.17;;;;;;;-144.87;100.00;61487.56;4969649;28;20039;-75
2023/05/08 08:35:29;;;;;;;81.03;51.53;;;;;;;-144.87;100.00;61487.56;4955634;28;20464;-75
2023/05/08 08:37:56;;;;;;;82.32;51.95;;;;;;;-144.87;100.00;61487.56;4972767;28;20114;-76
2023/05/08 08:40:22;;;;;;;83.85;51.90;;;;;;;-144.87;100.00;61487.56;4955371;28;20047;-76
2023/05/08 08:42:48;;;;;;;75.03;48.90;;;;;;;-144.87;100.00;61487.56;4953615;28;20492;-75
2023/05/08 08:45:15;;;;;;;73.75;49.90;;;;;;;-144.87;100.00;61487.56;4952589;28;20042;-74
2023/05/08 08:47:44;;;;;;;75.35;50.67;;;;;;;-144.87;100.00;61487.56;4938793;28;20082;-75
2023/05/08 08:50:13;;;;;;;85.45;55.33;;;;;;;-144.87;100.00;61487.56;4938373;28;20039;-75
2023/05/08 08:53:01;;;;;;;90.38;57.88;;;;;;;-144.87;100.00;61487.56;4949048;28;20038;-75
2023/05/08 08:55:28;;;;;;;92.13;59.90;;;;;;;-144.87;100.00;61487.56;4972298;28;20523;-76
2023/05/08 08:58:21;;;;;;;89.78;57.80;;;;;;;-144.87;100.00;61487.56;4954494;28;20039;-75
2023/05/08 09:00:49;;;;;;;99.15;64.90;;;;;;;-144.87;100.00;61487.56;4928641;29;20047;-75
2023/05/08 09:03:16;;;;;;;105.07;64.60;;;;;;;-144.87;100.00;61487.56;4954373;28;20051;-77
2023/05/08 09:05:44;;;;;;;108.13;66.18;;;;;;;-144.87;100.00;61487.56;4956986;28;20082;-76
2023/05/08 09:08:11;;;;;;;126.55;73.07;;;;;;;-144.87;100.00;61487.56;4972925;28;20035;-74
2023/05/08 09:10:37;;;;;;;135.55;75.95;;;;;;;-144.87;100.00;61487.56;4955297;28;20412;-74
2023/05/08 09:13:04;;;;;;;129.43;74.68;;;;;;;-144.87;100.00;61487.56;4956762;28;20057;-77
2023/05/08 09:15:34;;;;;;;135.18;75.40;;;;;;;-144.87;100.00;61487.56;4953085;28;20026;-74
2023/05/08 09:18:01;;;;;;;128.60;71.30;;;;;;;-144.87;100.00;61487.56;4954060;28;20125;-74
2023/05/08 09:20:28;;;;;;;133.90;75.57;;;;;;;-144.87;100.00;61487.56;4936905;28;20043;-74
2023/05/08 09:22:55;;;;;;;127.40;71.70;;;;;;;-144.87;100.00;61487.56;4937336;28;20035;-74
2023/05/08 09:25:22;;;;;;;125.60;73.40;;;;;;;-144.87;100.00;61487.56;4954686;28;20042;-75
2023/05/08 09:27:48;;;;;;;130.15;76.22;;;;;;;-144.87;100.00;61487.56;4972069;28;20098;-76
2023/05/08 09:30:14;;;;;;;125.78;75.57;;;;;;;-144.87;100.00;61487.56;4954203;28;20464;-74
2023/05/08 09:32:42;;;;;;;127.03;76.35;;;;;;;-144.87;100.00;61487.56;4968286;28;20106;-75
2023/05/08 09:35:10;;;;;;;117.75;74.13;;;;;;;-144.87;100.00;61487.56;4954627;28;20089;-75
2023/05/08 09:37:40;;;;;;;120.18;71.63;;;;;;;-144.87;100.00;61487.56;4969505;28;20063;-75
2023/05/08 09:40:18;;;;;;;119.28;73.03;;;;;;;-144.87;100.00;61487.56;4954569;28;20081;-76
2023/05/08 09:42:45;;;;;;;125.57;75.80;;;;;;;-144.87;100.00;61487.56;4937822;28;20050;-75
2023/05/08 09:45:24;;;;;;;116.65;71.68;;;;;;;-144.87;100.00;61487.56;4957743;28;20117;-75
2023/05/08 09:47:51;;;;;;;119.25;73.95;;;;;;;-144.87;100.00;61487.56;4957580;28;20031;-74
2023/05/08 09:50:17;;;;;;;119.40;73.40;;;;;;;-144.87;100.00;61487.56;4958678;28;20047;-74
2023/05/08 09:52:47;;;;;;;118.30;73.50;;;;;;;-144.87;100.00;61487.56;4958912;28;20034;-75
2023/05/08 09:55:13;;;;;;;112.03;70.97;;;;;;;-144.87;100.00;61487.56;4960004;28;20055;-75
2023/05/08 09:57:55;;;;;;;123.65;72.68;;;;;;;-144.87;100.00;61487.56;4956154;28;20298;-76
2023/05/08 10:00:23;;;;;;;122.82;72.97;;;;;;;-144.87;100.00;61487.56;4956448;28;20030;-75
2023/05/08 10:03:02;;;;;;;126.03;74.40;;;;;;;-144.87;100.00;61487.56;4973396;28;20057;-76
2023/05/08 10:05:35;;;;;;;120.03;72.07;;;;;;;-144.87;100.00;61487.56;4953801;28;20379;-75
2023/05/08 10:08:25;;;;;;;131.32;74.60;;;;;;;-144.87;100.00;61487.56;4970850;28;20129;-74
2023/05/08 10:10:52;;;;;;;126.45;75.47;;;;;;;-144.87;100.00;61487.56;4967981;28;20121;-76
2023/05/08 10:13:18;;;;;;;131.65;78.15;;;;;;;-144.87;100.00;61487.56;4953631;28;20041;-74
2023/05/08 10:15:44;;;;;;;119.80;73.45;;;;;;;-144.87;100.00;61487.56;4971027;28;20050;-74
2023/05/08 10:18:11;;;;;;;116.68;70.03;;;;;;;-144.87;100.00;61487.56;4921597;28;20035;-76
2023/05/08 10:20:40;;;;;;;114.15;68.18;;;;;;;-144.87;100.00;61487.56;4935128;28;20506;-76
2023/05/08 10:23:13;;;;;;;105.85;66.18;;;;;;;-144.87;100.00;61487.56;4953947;28;20042;-75
2023/05/08 10:25:47;;;;;;;111.22;68.53;;;;;;;-144.87;100.00;61487.56;4922374;28;20110;-74
2023/05/08 10:28:24;;;;;;;107.95;69.25;;;;;;;-144.87;100.00;61487.56;4951515;28;20054;-76
2023/05/08 10:30:51;;;;;;;112.13;71.28;;;;;;;-144.87;100.00;61487.56;4953379;28;20427;-76
2023/05/08 10:33:20;;;;;;;110.72;70.43;;;;;;;-144.87;100.00;61487.56;4970037;28;20031;-75
2023/05/08 10:35:47;;;;;;;107.10;71.43;;;;;;;-144.87;100.00;61487.56;4953065;28;20041;-76
2023/05/08 10:38:15;;;;;;;114.50;75.38;;;;;;;-144.87;100.00;61487.56;4937107;28;20031;-76
2023/05/08 10:40:41;;;;;;;110.22;72.82;;;;;;;-144.87;100.00;61487.56;4954235;28;20039;-76
2023/05/08 10:43:08;;;;;;;107.10;70.22;;;;;;;-144.87;100.00;61487.56;4970212;28;20336;-75
2023/05/08 10:45:35;;;;;;;102.00;69.72;;;;;;;-144.87;100.00;61487.56;4952928;28;20056;-76
2023/05/08 10:48:22;;;;;;;102.97;67.53;;;;;;;-144.87;100.00;61487.56;4952313;28;20126;-76
2023/05/08 10:51:09;;;;;;;101.13;70.95;;;;;;;-144.87;100.00;61487.56;4967715;28;20072;-75
2023/05/08 10:54:00;;;;;;;100.00;68.35;;;;;;;-144.87;100.00;61487.56;4935913;28;20027;-75
2023/05/08 10:56:30;;;;;;;91.88;62.20;;;;;;;-144.87;100.00;61487.56;4942183;28;20496;-75
2023/05/08 10:58:57;;;;;;;89.68;61.20;;;;;;;-144.87;100.00;61487.56;4954782;28;20030;-74
2023/05/08 11:01:24;;;;;;;92.95;62.25;;;;;;;-144.87;100.00;61487.56;4953433;28;20058;-74
2023/05/08 11:03:51;;;;;;;95.05;60.33;;;;;;;-144.87;100.00;61487.56;4954746;28;20038;-74
2023/05/08 11:06:38;;;;;;;93.03;63.63;;;;;;;-144.87;100.00;61487.56;4953962;28;20365;-75